createdAt,value
2022-12-12T00:01:54.050Z,29.00
2022-12-12T00:06:15.949Z,26.20
2022-12-12T00:10:37.692Z,27.83
2022-12-12T00:14:59.723Z,26.92
2022-12-12T00:19:21.641Z,27.00
2022-12-12T00:23:43.943Z,26.70
2022-12-12T00:28:06.063Z,28.52
2022-12-12T00:32:28.214Z,27.95
2022-12-12T00:36:51.726Z,26.70
2022-12-12T00:41:13.935Z,28.15
2022-12-12T00:45:38.094Z,27.65
2022-12-12T00:49:59.828Z,26.77
2022-12-12T00:54:21.890Z,28.13
2022-12-12T00:58:53.279Z,28.27
2022-12-12T01:03:15.031Z,26.83
2022-12-12T01:07:37.158Z,26.85
2022-12-12T01:11:59.013Z,25.50
2022-12-12T01:16:22.618Z,26.25
2022-12-12T01:20:45.439Z,26.80
2022-12-12T01:25:07.662Z,25.00
2022-12-12T01:29:29.600Z,24.38
2022-12-12T01:33:51.399Z,25.88
2022-12-12T01:38:13.392Z,26.60
2022-12-12T01:42:35.667Z,25.55
2022-12-12T01:46:57.415Z,24.67
2022-12-12T01:51:24.936Z,25.67
2022-12-12T01:55:49.472Z,24.85
2022-12-12T02:00:12.898Z,26.00
2022-12-12T02:04:39.743Z,24.38
2022-12-12T02:09:06.383Z,25.15
2022-12-12T02:13:32.109Z,25.52
2022-12-12T02:18:13.095Z,24.33
2022-12-12T02:23:30.269Z,24.90
2022-12-12T02:28:35.957Z,25.10
2022-12-12T02:33:37.612Z,25.40
2022-12-12T02:38:29.488Z,23.88
2022-12-12T02:43:18.443Z,22.25
2022-12-12T02:47:48.289Z,24.38
2022-12-12T02:52:11.433Z,25.58
2022-12-12T02:56:51.204Z,42.22
2022-12-12T03:01:47.111Z,22.80
2022-12-12T03:07:05.411Z,24.60
2022-12-12T03:11:58.883Z,23.42
2022-12-12T03:16:30.688Z,21.83
2022-12-12T03:21:04.440Z,22.92
2022-12-12T03:25:52.100Z,23.25
2022-12-12T03:30:19.453Z,22.30
2022-12-12T03:34:50.722Z,22.60
2022-12-12T03:39:22.114Z,22.95
2022-12-12T03:43:57.814Z,26.52
2022-12-12T03:48:30.811Z,24.25
2022-12-12T03:53:19.989Z,23.20
2022-12-12T03:58:00.702Z,23.77
2022-12-12T04:03:24.104Z,24.15
2022-12-12T04:08:03.142Z,22.63
2022-12-12T04:12:57.283Z,23.23
2022-12-12T04:17:31.962Z,21.38
2022-12-12T04:22:18.521Z,23.17
2022-12-12T04:27:01.107Z,23.58
2022-12-12T04:31:30.997Z,21.63
2022-12-12T04:35:55.608Z,22.00
2022-12-12T04:40:38.261Z,21.45
2022-12-12T04:45:12.101Z,21.70
2022-12-12T04:49:35.974Z,21.13
2022-12-12T04:54:35.154Z,21.25
2022-12-12T04:58:57.769Z,21.67
2022-12-12T05:03:43.522Z,20.02
2022-12-12T05:08:27.394Z,21.52
2022-12-12T05:12:56.730Z,19.33
2022-12-12T05:17:27.940Z,24.80
2022-12-12T05:21:50.517Z,19.58
2022-12-12T05:26:36.061Z,20.08
2022-12-12T05:30:58.001Z,19.15
2022-12-12T05:35:19.865Z,19.23
2022-12-12T05:39:41.877Z,20.95
2022-12-12T05:44:03.919Z,18.95
2022-12-12T05:48:26.161Z,18.63
2022-12-12T05:52:48.080Z,18.08
2022-12-12T05:57:10.049Z,17.83
2022-12-12T06:01:32.533Z,18.98
2022-12-12T06:05:54.543Z,19.23
2022-12-12T06:10:16.473Z,17.95
2022-12-12T06:14:38.435Z,17.35
2022-12-12T06:19:00.320Z,16.92
2022-12-12T06:23:22.332Z,18.10
2022-12-12T06:27:44.299Z,16.40
2022-12-12T06:32:06.513Z,16.17
2022-12-12T06:36:28.589Z,15.32
2022-12-12T06:40:50.484Z,15.07
2022-12-12T06:45:12.765Z,15.45
2022-12-12T06:49:35.395Z,16.27
2022-12-12T06:53:58.025Z,15.38
2022-12-12T06:58:20.100Z,15.38
2022-12-12T07:02:42.302Z,16.55
2022-12-12T07:07:04.477Z,15.82
2022-12-12T07:11:28.537Z,15.38
2022-12-12T07:15:51.009Z,15.98
2022-12-12T07:20:12.889Z,15.10
2022-12-12T07:24:36.393Z,14.77
2022-12-12T07:28:58.480Z,14.35
2022-12-12T07:33:21.642Z,15.82
2022-12-12T07:37:44.466Z,14.25
2022-12-12T07:42:06.956Z,15.88
2022-12-12T07:46:29.748Z,14.38
2022-12-12T07:50:52.205Z,16.15
2022-12-12T07:55:14.738Z,15.13
2022-12-12T07:59:37.800Z,15.00
2022-12-12T08:04:01.047Z,17.20
2022-12-12T08:08:23.257Z,15.85
2022-12-12T08:12:45.357Z,14.70
2022-12-12T08:17:07.005Z,14.40
2022-12-12T08:21:29.319Z,15.90
2022-12-12T08:25:51.246Z,15.18
2022-12-12T08:30:13.270Z,13.57
2022-12-12T08:34:35.222Z,14.73
2022-12-12T08:39:01.757Z,14.25
2022-12-12T08:43:23.794Z,12.48
2022-12-12T08:47:45.716Z,13.98
2022-12-12T08:52:10.054Z,13.68
2022-12-12T08:56:31.938Z,14.52
2022-12-12T09:00:54.218Z,13.65
2022-12-12T09:05:16.473Z,13.55
2022-12-12T09:09:38.217Z,13.45
2022-12-12T09:14:00.333Z,14.32
2022-12-12T09:18:23.510Z,14.52
2022-12-12T09:22:45.962Z,13.68
2022-12-12T09:27:08.382Z,12.35
2022-12-12T09:31:31.915Z,13.07
2022-12-12T09:36:00.100Z,13.15
2022-12-12T09:40:31.210Z,13.15
2022-12-12T09:45:00.304Z,13.63
2022-12-12T09:49:43.046Z,12.88
2022-12-12T09:54:06.747Z,13.57
2022-12-12T09:59:06.590Z,14.55
2022-12-12T10:04:01.207Z,13.82
2022-12-12T10:08:30.152Z,13.13
2022-12-12T10:12:54.002Z,13.13
2022-12-12T10:17:28.155Z,13.88
2022-12-12T10:21:54.606Z,13.90
2022-12-12T10:26:27.792Z,13.90
2022-12-12T10:31:38.546Z,13.43
2022-12-12T10:36:37.209Z,12.77
2022-12-12T10:41:05.674Z,13.05
2022-12-12T10:46:15.236Z,13.32
2022-12-12T10:50:47.762Z,12.63
2022-12-12T10:55:20.006Z,12.52
2022-12-12T10:59:45.560Z,12.45
2022-12-12T11:04:08.550Z,12.65
2022-12-12T11:08:38.838Z,13.23
2022-12-12T11:13:14.331Z,11.98
2022-12-12T11:17:36.571Z,12.90
2022-12-12T11:22:04.231Z,11.88
2022-12-12T11:26:29.345Z,13.27
2022-12-12T11:30:54.426Z,11.85
2022-12-12T11:35:47.110Z,11.75
2022-12-12T11:40:24.912Z,12.55
2022-12-12T11:44:56.457Z,12.68
2022-12-12T11:49:20.646Z,13.18
2022-12-12T11:53:45.662Z,12.88
2022-12-12T11:58:30.302Z,12.13
2022-12-12T12:03:18.797Z,12.23
2022-12-12T12:08:14.854Z,13.82
2022-12-12T12:13:00.143Z,12.10
2022-12-12T12:17:49.029Z,12.98
2022-12-12T12:22:31.456Z,13.75
2022-12-12T12:27:26.239Z,11.70
2022-12-12T12:32:25.941Z,13.90
2022-12-12T12:37:24.864Z,13.43
2022-12-12T12:42:32.826Z,14.85
2022-12-12T12:47:23.811Z,15.45
2022-12-12T12:52:11.138Z,14.80
2022-12-12T12:56:44.248Z,15.23
2022-12-12T13:01:13.553Z,16.10
2022-12-12T13:05:50.516Z,15.52
2022-12-12T13:10:27.402Z,16.45
2022-12-12T13:15:16.065Z,16.63
2022-12-12T13:19:43.248Z,16.80
2022-12-12T13:24:23.268Z,19.05
2022-12-12T13:29:00.031Z,18.70
2022-12-12T13:33:57.662Z,18.08
2022-12-12T13:38:27.817Z,17.45
2022-12-12T13:43:09.480Z,18.25
2022-12-12T13:47:31.717Z,16.17
2022-12-12T13:52:42.271Z,15.32
2022-12-12T13:57:35.938Z,15.40
2022-12-12T14:02:03.269Z,13.80
2022-12-12T14:06:30.015Z,15.18
2022-12-12T14:11:06.273Z,16.40
2022-12-12T14:15:32.780Z,14.70
2022-12-12T14:19:58.731Z,15.90
2022-12-12T14:24:33.466Z,14.50
2022-12-12T14:29:17.467Z,14.38
2022-12-12T14:34:01.903Z,14.98
2022-12-12T14:38:50.976Z,15.02
2022-12-12T14:43:25.993Z,14.18
2022-12-12T14:47:47.747Z,15.05
2022-12-12T14:52:24.089Z,15.30
2022-12-12T14:56:55.606Z,15.65
2022-12-12T15:01:29.299Z,16.98
2022-12-12T15:06:23.730Z,16.10
2022-12-12T15:10:45.856Z,17.33
2022-12-12T15:15:28.182Z,16.05
2022-12-12T15:19:54.905Z,16.63
2022-12-12T15:24:24.750Z,16.88
2022-12-12T15:28:48.583Z,17.85
2022-12-12T15:33:18.744Z,17.27
2022-12-12T15:37:40.417Z,16.60
2022-12-12T15:42:02.523Z,18.13
2022-12-12T15:46:24.994Z,17.30
2022-12-12T15:50:50.957Z,16.85
2022-12-12T15:55:22.610Z,19.50
2022-12-12T15:59:44.813Z,17.02
2022-12-12T16:04:25.816Z,19.45
2022-12-12T16:09:12.331Z,17.25
2022-12-12T16:13:42.086Z,18.48
2022-12-12T16:18:23.774Z,18.05
2022-12-12T16:22:45.320Z,17.95
2022-12-12T16:27:09.052Z,17.52
2022-12-12T16:31:30.871Z,18.35
2022-12-12T16:35:53.241Z,18.08
2022-12-12T16:40:20.815Z,18.67
2022-12-12T16:44:43.362Z,19.02
2022-12-12T16:49:08.304Z,19.48
2022-12-12T16:53:34.821Z,17.98
2022-12-12T16:57:56.512Z,18.67
2022-12-12T17:02:22.298Z,19.30
2022-12-12T17:06:44.383Z,18.63
2022-12-12T17:11:09.410Z,18.50
2022-12-12T17:15:34.280Z,19.48
2022-12-12T17:19:56.245Z,18.13
2022-12-12T17:24:18.222Z,17.60
2022-12-12T17:28:40.149Z,16.40
2022-12-12T17:33:17.554Z,17.35
2022-12-12T17:37:39.468Z,18.42
2022-12-12T17:42:01.719Z,16.20
2022-12-12T17:46:25.551Z,15.32
2022-12-12T17:51:00.603Z,15.43
2022-12-12T17:55:52.975Z,13.95
2022-12-12T18:00:07.161Z,15.88
2022-12-12T18:04:38.088Z,18.45
2022-12-12T18:09:00.933Z,16.70
2022-12-12T18:13:22.976Z,15.57
2022-12-12T18:17:44.833Z,16.08
2022-12-12T18:22:06.752Z,14.20
2022-12-12T18:26:29.256Z,15.43
2022-12-12T18:30:52.115Z,14.73
2022-12-12T18:35:14.160Z,15.68
2022-12-12T18:39:36.430Z,15.77
2022-12-12T18:43:59.288Z,15.07
2022-12-12T18:48:21.081Z,13.90
2022-12-12T18:52:42.673Z,16.35
2022-12-12T18:57:04.754Z,15.45
2022-12-12T19:01:30.860Z,16.05
2022-12-12T19:05:53.107Z,16.80
2022-12-12T19:10:15.040Z,15.82
2022-12-12T19:14:59.708Z,16.55
2022-12-12T19:19:18.971Z,15.95
2022-12-12T19:23:41.633Z,17.52
2022-12-12T19:28:04.301Z,14.35
2022-12-12T19:32:26.510Z,15.48
2022-12-12T19:36:48.419Z,16.08
2022-12-12T19:41:14.173Z,16.85
2022-12-12T19:45:35.937Z,18.35
2022-12-12T19:49:57.807Z,19.60
2022-12-12T19:54:21.113Z,17.77
2022-12-12T19:58:44.288Z,17.67
2022-12-12T20:03:09.124Z,19.90
2022-12-12T20:07:31.309Z,20.73
2022-12-12T20:11:54.753Z,21.50
2022-12-12T20:16:20.136Z,21.52
2022-12-12T20:20:42.143Z,20.08
2022-12-12T20:25:04.376Z,19.88
2022-12-12T20:29:26.567Z,19.17
2022-12-12T20:33:49.329Z,18.15
2022-12-12T20:38:11.218Z,17.40
2022-12-12T20:42:32.986Z,19.45
2022-12-12T20:46:55.122Z,17.40
2022-12-12T20:51:53.635Z,17.98
2022-12-12T20:56:11.058Z,18.45
2022-12-12T21:00:35.588Z,17.65
2022-12-12T21:04:58.976Z,18.05
2022-12-12T21:09:25.962Z,16.98
2022-12-12T21:13:50.668Z,16.75
2022-12-12T21:18:12.416Z,17.67
2022-12-12T21:22:34.810Z,17.30
2022-12-12T21:26:56.865Z,17.88
2022-12-12T21:31:29.886Z,15.15
2022-12-12T21:35:55.135Z,12.68
2022-12-12T21:40:17.654Z,13.88
2022-12-12T21:44:45.546Z,13.52
2022-12-12T21:49:26.290Z,12.15
2022-12-12T21:53:48.512Z,12.23
2022-12-12T21:58:10.383Z,11.05
2022-12-12T22:02:32.362Z,10.18
2022-12-12T22:06:54.625Z,11.32
2022-12-12T22:11:39.838Z,11.02
2022-12-12T22:16:04.463Z,11.05
2022-12-12T22:20:26.011Z,9.77
2022-12-12T22:24:47.988Z,10.63
2022-12-12T22:29:20.136Z,10.05
2022-12-12T22:33:42.118Z,8.25
2022-12-12T22:38:04.076Z,9.13
2022-12-12T22:42:28.487Z,8.82
2022-12-12T22:46:52.283Z,8.77
2022-12-12T22:51:22.165Z,8.55
2022-12-12T22:55:44.466Z,7.53
2022-12-12T23:00:10.507Z,8.23
2022-12-12T23:04:32.598Z,7.75
2022-12-12T23:08:58.483Z,7.47
2022-12-12T23:13:20.584Z,7.60
2022-12-12T23:17:42.623Z,7.95
2022-12-12T23:22:04.541Z,6.90
2022-12-12T23:26:30.472Z,7.32
2022-12-12T23:30:52.300Z,7.95
2022-12-12T23:35:23.899Z,8.82
2022-12-12T23:39:45.820Z,8.20
2022-12-12T23:44:08.447Z,8.68
2022-12-12T23:48:39.503Z,9.35
2022-12-12T23:53:06.248Z,8.88
2022-12-12T23:57:38.978Z,10.18
